sensor_id;sensor_type;location;lat;lon;timestamp;temperature;humidity
31769;DHT22;18342;52.132;21.048;2022-07-29T02:00:24;18.40;99.90
31769;DHT22;18342;52.132;21.048;2022-07-29T02:02:51;18.50;99.90
31769;DHT22;18342;52.132;21.048;2022-07-29T02:05:21;18.50;99.90
31769;DHT22;18342;52.132;21.048;2022-07-29T02:07:48;18.50;99.90
31769;DHT22;18342;52.132;21.048;2022-07-29T02:10:15;18.40;99.90
31769;DHT22;18342;52.132;21.048;2022-07-29T02:12:43;18.40;99.90
31769;DHT22;18342;52.132;21.048;2022-07-29T02:15:10;18.40;99.90
31769;DHT22;18342;52.132;21.048;2022-07-29T02:17:51;18.30;99.90
31769;DHT22;18342;52.132;21.048;2022-07-29T02:20:19;18.40;99.90
31769;DHT22;18342;52.132;21.048;2022-07-29T02:22:46;18.30;99.90
31769;DHT22;18342;52.132;21.048;2022-07-29T02:25:13;18.30;99.90
31769;DHT22;18342;52.132;21.048;2022-07-29T02:27:41;18.30;99.90
31769;DHT22;18342;52.132;21.048;2022-07-29T02:30:08;18.30;99.90
31769;DHT22;18342;52.132;21.048;2022-07-29T02:32:36;18.20;99.90
31769;DHT22;18342;52.132;21.048;2022-07-29T02:35:04;18.20;99.90
31769;DHT22;18342;52.132;21.048;2022-07-29T02:37:31;18.10;99.90
31769;DHT22;18342;52.132;21.048;2022-07-29T02:39:58;18.20;99.90
31769;DHT22;18342;52.132;21.048;2022-07-29T02:42:26;18.20;99.90
31769;DHT22;18342;52.132;21.048;2022-07-29T02:44:52;18.10;99.90
31769;DHT22;18342;52.132;21.048;2022-07-29T02:47:30;18.10;99.90
31769;DHT22;18342;52.132;21.048;2022-07-29T02:50:17;18.10;99.90
31769;DHT22;18342;52.132;21.048;2022-07-29T02:52:52;18.10;99.90
31769;DHT22;18342;52.132;21.048;2022-07-29T02:55:26;18.10;99.90
31769;DHT22;18342;52.132;21.048;2022-07-29T03:00:43;18.10;99.90
31769;DHT22;18342;52.132;21.048;2022-07-29T03:03:13;18.10;99.90
31769;DHT22;18342;52.132;21.048;2022-07-29T03:05:40;18.10;99.90
31769;DHT22;18342;52.132;21.048;2022-07-29T03:08:09;18.10;99.90
31769;DHT22;18342;52.132;21.048;2022-07-29T03:10:37;18.10;99.90
31769;DHT22;18342;52.132;21.048;2022-07-29T03:13:05;18.00;99.90
31769;DHT22;18342;52.132;21.048;2022-07-29T03:15:32;18.00;99.90
31769;DHT22;18342;52.132;21.048;2022-07-29T03:17:58;18.00;99.90
31769;DHT22;18342;52.132;21.048;2022-07-29T03:20:24;18.00;99.90
31769;DHT22;18342;52.132;21.048;2022-07-29T03:22:50;18.00;99.90
31769;DHT22;18342;52.132;21.048;2022-07-29T03:25:18;17.90;99.90
31769;DHT22;18342;52.132;21.048;2022-07-29T03:27:45;17.90;99.90
31769;DHT22;18342;52.132;21.048;2022-07-29T03:30:12;17.90;99.90
31769;DHT22;18342;52.132;21.048;2022-07-29T03:32:38;17.90;99.90
31769;DHT22;18342;52.132;21.048;2022-07-29T03:35:05;17.90;99.90
31769;DHT22;18342;52.132;21.048;2022-07-29T03:37:31;17.90;99.90
31769;DHT22;18342;52.132;21.048;2022-07-29T03:39:57;17.90;99.90
31769;DHT22;18342;52.132;21.048;2022-07-29T03:42:26;17.90;99.90
31769;DHT22;18342;52.132;21.048;2022-07-29T03:44:54;17.90;99.90
31769;DHT22;18342;52.132;21.048;2022-07-29T03:47:23;17.80;99.90
31769;DHT22;18342;52.132;21.048;2022-07-29T03:49:52;17.80;99.90
31769;DHT22;18342;52.132;21.048;2022-07-29T03:52:19;17.80;99.90
31769;DHT22;18342;52.132;21.048;2022-07-29T03:54:46;17.80;99.90
31769;DHT22;18342;52.132;21.048;2022-07-29T03:57:13;17.80;99.90
31769;DHT22;18342;52.132;21.048;2022-07-29T03:59:40;17.80;99.90
31769;DHT22;18342;52.132;21.048;2022-07-29T04:02:09;17.80;99.90
31769;DHT22;18342;52.132;21.048;2022-07-29T04:04:35;17.80;99.90
31769;DHT22;18342;52.132;21.048;2022-07-29T04:07:01;17.80;99.90
31769;DHT22;18342;52.132;21.048;2022-07-29T04:09:27;17.80;99.90
31769;DHT22;18342;52.132;21.048;2022-07-29T04:11:53;17.80;99.90
31769;DHT22;18342;52.132;21.048;2022-07-29T04:14:19;17.80;99.90
31769;DHT22;18342;52.132;21.048;2022-07-29T04:16:46;17.80;99.90
31769;DHT22;18342;52.132;21.048;2022-07-29T04:19:11;17.80;99.90
31769;DHT22;18342;52.132;21.048;2022-07-29T04:21:40;17.80;99.90
31769;DHT22;18342;52.132;21.048;2022-07-29T04:24:07;17.80;99.90
31769;DHT22;18342;52.132;21.048;2022-07-29T04:26:33;17.90;99.90
31769;DHT22;18342;52.132;21.048;2022-07-29T04:28:59;17.90;99.90
31769;DHT22;18342;52.132;21.048;2022-07-29T04:31:25;18.00;99.90
31769;DHT22;18342;52.132;21.048;2022-07-29T04:33:50;18.10;99.90
31769;DHT22;18342;52.132;21.048;2022-07-29T04:36:16;18.10;99.90
31769;DHT22;18342;52.132;21.048;2022-07-29T04:38:42;18.10;99.90
31769;DHT22;18342;52.132;21.048;2022-07-29T04:41:08;18.20;99.90
31769;DHT22;18342;52.132;21.048;2022-07-29T04:43:35;18.20;99.90
31769;DHT22;18342;52.132;21.048;2022-07-29T04:46:02;18.30;99.90
31769;DHT22;18342;52.132;21.048;2022-07-29T04:48:28;18.20;99.90
31769;DHT22;18342;52.132;21.048;2022-07-29T04:50:53;18.20;99.90
31769;DHT22;18342;52.132;21.048;2022-07-29T04:53:19;18.30;99.90
31769;DHT22;18342;52.132;21.048;2022-07-29T04:55:45;18.30;99.90
31769;DHT22;18342;52.132;21.048;2022-07-29T04:58:11;18.30;99.90
31769;DHT22;18342;52.132;21.048;2022-07-29T05:00:37;18.40;99.90
31769;DHT22;18342;52.132;21.048;2022-07-29T05:03:03;18.50;99.90
31769;DHT22;18342;52.132;21.048;2022-07-29T05:05:29;18.50;99.90
31769;DHT22;18342;52.132;21.048;2022-07-29T05:07:54;18.50;99.90
31769;DHT22;18342;52.132;21.048;2022-07-29T05:10:20;18.60;99.90
31769;DHT22;18342;52.132;21.048;2022-07-29T05:12:46;18.60;99.90
31769;DHT22;18342;52.132;21.048;2022-07-29T05:15:12;18.70;99.90
31769;DHT22;18342;52.132;21.048;2022-07-29T05:17:38;18.70;99.90
31769;DHT22;18342;52.132;21.048;2022-07-29T05:20:04;18.80;99.90
31769;DHT22;18342;52.132;21.048;2022-07-29T05:22:30;18.80;99.90
31769;DHT22;18342;52.132;21.048;2022-07-29T05:24:56;18.80;99.90
31769;DHT22;18342;52.132;21.048;2022-07-29T05:27:22;18.80;99.90
31769;DHT22;18342;52.132;21.048;2022-07-29T05:29:47;18.90;99.90
31769;DHT22;18342;52.132;21.048;2022-07-29T05:32:13;18.90;99.90
31769;DHT22;18342;52.132;21.048;2022-07-29T05:34:39;18.90;99.90
31769;DHT22;18342;52.132;21.048;2022-07-29T05:37:05;19.00;99.90
31769;DHT22;18342;52.132;21.048;2022-07-29T05:39:31;19.10;99.90
31769;DHT22;18342;52.132;21.048;2022-07-29T05:41:56;19.20;99.90
31769;DHT22;18342;52.132;21.048;2022-07-29T05:44:22;19.20;99.90
31769;DHT22;18342;52.132;21.048;2022-07-29T05:46:48;19.30;99.90
31769;DHT22;18342;52.132;21.048;2022-07-29T05:49:13;19.50;99.90
31769;DHT22;18342;52.132;21.048;2022-07-29T05:51:39;19.50;99.90
31769;DHT22;18342;52.132;21.048;2022-07-29T05:54:05;19.50;99.90
31769;DHT22;18342;52.132;21.048;2022-07-29T05:56:31;19.60;99.90
31769;DHT22;18342;52.132;21.048;2022-07-29T05:58:57;19.70;99.90
31769;DHT22;18342;52.132;21.048;2022-07-29T06:01:22;19.80;99.90
31769;DHT22;18342;52.132;21.048;2022-07-29T06:03:48;19.90;99.90
31769;DHT22;18342;52.132;21.048;2022-07-29T06:06:14;19.90;99.90
31769;DHT22;18342;52.132;21.048;2022-07-29T06:08:39;19.90;99.90
31769;DHT22;18342;52.132;21.048;2022-07-29T06:11:05;19.90;99.90
31769;DHT22;18342;52.132;21.048;2022-07-29T06:13:31;20.00;99.90
31769;DHT22;18342;52.132;21.048;2022-07-29T06:15:57;20.20;99.90
31769;DHT22;18342;52.132;21.048;2022-07-29T06:18:23;20.30;99.90
31769;DHT22;18342;52.132;21.048;2022-07-29T06:20:52;20.20;99.90
31769;DHT22;18342;52.132;21.048;2022-07-29T06:23:19;20.40;99.90
31769;DHT22;18342;52.132;21.048;2022-07-29T06:25:44;20.50;99.90
31769;DHT22;18342;52.132;21.048;2022-07-29T06:28:11;20.70;99.90
31769;DHT22;18342;52.132;21.048;2022-07-29T06:30:36;20.60;99.90
31769;DHT22;18342;52.132;21.048;2022-07-29T06:33:03;20.70;99.90
31769;DHT22;18342;52.132;21.048;2022-07-29T06:35:29;20.80;99.90
31769;DHT22;18342;52.132;21.048;2022-07-29T06:37:55;20.90;99.90
31769;DHT22;18342;52.132;21.048;2022-07-29T06:40:20;21.00;99.90
31769;DHT22;18342;52.132;21.048;2022-07-29T06:43:04;21.00;99.90
31769;DHT22;18342;52.132;21.048;2022-07-29T06:45:33;21.20;99.90
31769;DHT22;18342;52.132;21.048;2022-07-29T06:47:59;21.30;99.90
31769;DHT22;18342;52.132;21.048;2022-07-29T06:50:25;21.40;99.90
31769;DHT22;18342;52.132;21.048;2022-07-29T06:52:50;21.50;99.90
31769;DHT22;18342;52.132;21.048;2022-07-29T06:55:16;21.50;99.90
31769;DHT22;18342;52.132;21.048;2022-07-29T06:57:44;21.60;99.90
31769;DHT22;18342;52.132;21.048;2022-07-29T07:00:11;21.50;99.90
31769;DHT22;18342;52.132;21.048;2022-07-29T07:02:36;21.50;99.90
31769;DHT22;18342;52.132;21.048;2022-07-29T07:05:02;21.60;99.90
31769;DHT22;18342;52.132;21.048;2022-07-29T07:07:28;21.80;99.90
31769;DHT22;18342;52.132;21.048;2022-07-29T07:09:54;21.80;99.90
31769;DHT22;18342;52.132;21.048;2022-07-29T07:12:19;21.90;99.90
31769;DHT22;18342;52.132;21.048;2022-07-29T07:14:45;22.00;99.90
31769;DHT22;18342;52.132;21.048;2022-07-29T07:17:11;22.00;99.90
31769;DHT22;18342;52.132;21.048;2022-07-29T07:19:36;22.10;99.90
31769;DHT22;18342;52.132;21.048;2022-07-29T07:22:02;22.10;99.90
31769;DHT22;18342;52.132;21.048;2022-07-29T07:24:27;22.20;99.90
31769;DHT22;18342;52.132;21.048;2022-07-29T07:26:53;22.30;99.90
31769;DHT22;18342;52.132;21.048;2022-07-29T07:29:19;22.40;99.90
31769;DHT22;18342;52.132;21.048;2022-07-29T07:31:44;22.40;99.90
31769;DHT22;18342;52.132;21.048;2022-07-29T07:34:10;22.50;99.90
31769;DHT22;18342;52.132;21.048;2022-07-29T07:36:36;22.50;99.90
31769;DHT22;18342;52.132;21.048;2022-07-29T07:39:02;22.40;99.90
31769;DHT22;18342;52.132;21.048;2022-07-29T07:41:28;22.50;99.90
31769;DHT22;18342;52.132;21.048;2022-07-29T07:43:54;22.50;99.90
31769;DHT22;18342;52.132;21.048;2022-07-29T07:46:20;22.50;99.90
31769;DHT22;18342;52.132;21.048;2022-07-29T07:48:45;22.50;99.90
31769;DHT22;18342;52.132;21.048;2022-07-29T07:51:11;22.50;99.90
31769;DHT22;18342;52.132;21.048;2022-07-29T07:53:37;22.60;99.90
31769;DHT22;18342;52.132;21.048;2022-07-29T07:56:03;22.70;99.90
31769;DHT22;18342;52.132;21.048;2022-07-29T07:58:30;22.80;99.90
31769;DHT22;18342;52.132;21.048;2022-07-29T08:00:55;22.80;99.90
31769;DHT22;18342;52.132;21.048;2022-07-29T08:03:21;22.90;99.90
31769;DHT22;18342;52.132;21.048;2022-07-29T08:05:47;23.00;99.90
31769;DHT22;18342;52.132;21.048;2022-07-29T08:08:13;23.10;99.90
31769;DHT22;18342;52.132;21.048;2022-07-29T08:10:39;23.20;99.90
31769;DHT22;18342;52.132;21.048;2022-07-29T08:13:26;23.30;99.90
31769;DHT22;18342;52.132;21.048;2022-07-29T08:15:54;23.50;99.90
31769;DHT22;18342;52.132;21.048;2022-07-29T08:18:24;23.50;99.90
31769;DHT22;18342;52.132;21.048;2022-07-29T08:20:50;23.60;99.90
31769;DHT22;18342;52.132;21.048;2022-07-29T08:23:16;23.70;99.90
31769;DHT22;18342;52.132;21.048;2022-07-29T08:25:41;23.90;99.90
31769;DHT22;18342;52.132;21.048;2022-07-29T08:28:07;24.00;99.90
31769;DHT22;18342;52.132;21.048;2022-07-29T08:30:34;24.00;99.90
31769;DHT22;18342;52.132;21.048;2022-07-29T08:33:00;24.20;99.90
31769;DHT22;18342;52.132;21.048;2022-07-29T08:35:26;24.20;99.90
31769;DHT22;18342;52.132;21.048;2022-07-29T08:37:53;24.30;99.90
31769;DHT22;18342;52.132;21.048;2022-07-29T08:40:19;24.40;99.90
31769;DHT22;18342;52.132;21.048;2022-07-29T08:42:46;24.70;99.90
31769;DHT22;18342;52.132;21.048;2022-07-29T08:45:11;24.80;99.60
31769;DHT22;18342;52.132;21.048;2022-07-29T08:47:39;24.90;99.40
31769;DHT22;18342;52.132;21.048;2022-07-29T08:50:09;25.00;98.80
31769;DHT22;18342;52.132;21.048;2022-07-29T08:52:40;25.20;99.00
31769;DHT22;18342;52.132;21.048;2022-07-29T08:55:07;25.30;98.90
31769;DHT22;18342;52.132;21.048;2022-07-29T08:57:33;25.50;98.00
31769;DHT22;18342;52.132;21.048;2022-07-29T09:00:05;25.60;96.60
31769;DHT22;18342;52.132;21.048;2022-07-29T09:02:35;25.60;96.50
31769;DHT22;18342;52.132;21.048;2022-07-29T09:05:04;25.70;96.30
31769;DHT22;18342;52.132;21.048;2022-07-29T09:07:30;25.80;95.70
31769;DHT22;18342;52.132;21.048;2022-07-29T09:09:56;25.90;96.20
31769;DHT22;18342;52.132;21.048;2022-07-29T09:12:22;25.90;95.50
31769;DHT22;18342;52.132;21.048;2022-07-29T09:14:50;25.80;95.10
31769;DHT22;18342;52.132;21.048;2022-07-29T09:17:16;25.70;95.60
31769;DHT22;18342;52.132;21.048;2022-07-29T09:19:43;25.80;95.40
31769;DHT22;18342;52.132;21.048;2022-07-29T09:22:09;25.60;95.60
31769;DHT22;18342;52.132;21.048;2022-07-29T09:24:41;25.70;96.00
31769;DHT22;18342;52.132;21.048;2022-07-29T09:27:25;25.60;94.90
31769;DHT22;18342;52.132;21.048;2022-07-29T09:30:05;25.60;95.30
31769;DHT22;18342;52.132;21.048;2022-07-29T09:32:33;25.60;94.90
31769;DHT22;18342;52.132;21.048;2022-07-29T09:35:19;25.80;94.90
31769;DHT22;18342;52.132;21.048;2022-07-29T09:37:45;25.70;95.20
31769;DHT22;18342;52.132;21.048;2022-07-29T09:40:26;25.60;94.40
31769;DHT22;18342;52.132;21.048;2022-07-29T09:42:53;25.50;94.40
31769;DHT22;18342;52.132;21.048;2022-07-29T09:45:30;25.40;95.10
31769;DHT22;18342;52.132;21.048;2022-07-29T09:47:57;25.40;95.10
31769;DHT22;18342;52.132;21.048;2022-07-29T09:50:36;25.30;94.80
31769;DHT22;18342;52.132;21.048;2022-07-29T09:53:02;25.30;94.90
31769;DHT22;18342;52.132;21.048;2022-07-29T09:55:28;25.30;94.70
31769;DHT22;18342;52.132;21.048;2022-07-29T09:57:53;25.20;95.10
31769;DHT22;18342;52.132;21.048;2022-07-29T10:00:42;25.10;95.90
31769;DHT22;18342;52.132;21.048;2022-07-29T10:03:08;25.00;94.20
31769;DHT22;18342;52.132;21.048;2022-07-29T10:05:34;24.90;94.20
31769;DHT22;18342;52.132;21.048;2022-07-29T10:07:59;24.80;94.60
31769;DHT22;18342;52.132;21.048;2022-07-29T10:10:33;24.70;94.90
31769;DHT22;18342;52.132;21.048;2022-07-29T10:13:03;24.60;94.90
31769;DHT22;18342;52.132;21.048;2022-07-29T10:15:31;24.60;94.50
31769;DHT22;18342;52.132;21.048;2022-07-29T10:17:58;24.50;95.00
31769;DHT22;18342;52.132;21.048;2022-07-29T10:20:24;24.50;93.50
31769;DHT22;18342;52.132;21.048;2022-07-29T10:22:51;24.50;93.80
31769;DHT22;18342;52.132;21.048;2022-07-29T10:25:17;24.50;94.30
31769;DHT22;18342;52.132;21.048;2022-07-29T10:27:47;24.50;94.30
31769;DHT22;18342;52.132;21.048;2022-07-29T10:30:15;24.40;94.20
31769;DHT22;18342;52.132;21.048;2022-07-29T10:38:20;24.60;94.90
31769;DHT22;18342;52.132;21.048;2022-07-29T10:43:42;24.80;95.40
31769;DHT22;18342;52.132;21.048;2022-07-29T10:46:09;25.10;94.40
31769;DHT22;18342;52.132;21.048;2022-07-29T10:48:35;25.30;93.80
31769;DHT22;18342;52.132;21.048;2022-07-29T10:51:21;25.30;93.70
31769;DHT22;18342;52.132;21.048;2022-07-29T10:53:51;25.30;93.70
31769;DHT22;18342;52.132;21.048;2022-07-29T10:56:32;25.30;93.50
31769;DHT22;18342;52.132;21.048;2022-07-29T11:01:50;25.00;93.10
31769;DHT22;18342;52.132;21.048;2022-07-29T11:07:11;24.80;93.00
31769;DHT22;18342;52.132;21.048;2022-07-29T11:09:38;24.70;93.40
31769;DHT22;18342;52.132;21.048;2022-07-29T11:14:58;24.70;94.00
31769;DHT22;18342;52.132;21.048;2022-07-29T11:17:25;24.70;93.80
31769;DHT22;18342;52.132;21.048;2022-07-29T11:19:51;24.70;93.30
31769;DHT22;18342;52.132;21.048;2022-07-29T11:22:33;24.70;92.10
31769;DHT22;18342;52.132;21.048;2022-07-29T11:25:15;24.70;92.50
31769;DHT22;18342;52.132;21.048;2022-07-29T11:27:41;24.80;91.70
31769;DHT22;18342;52.132;21.048;2022-07-29T11:30:07;24.80;92.10
31769;DHT22;18342;52.132;21.048;2022-07-29T11:32:39;24.80;92.40
31769;DHT22;18342;52.132;21.048;2022-07-29T11:37:37;24.80;92.90
31769;DHT22;18342;52.132;21.048;2022-07-29T11:47:33;24.90;92.80
31769;DHT22;18342;52.132;21.048;2022-07-29T11:50:01;24.90;92.20
31769;DHT22;18342;52.132;21.048;2022-07-29T11:52:47;24.90;92.10
31769;DHT22;18342;52.132;21.048;2022-07-29T11:55:18;25.00;92.90
31769;DHT22;18342;52.132;21.048;2022-07-29T12:00:23;25.00;92.50
31769;DHT22;18342;52.132;21.048;2022-07-29T12:02:50;25.00;92.50
31769;DHT22;18342;52.132;21.048;2022-07-29T12:05:16;24.90;92.00
31769;DHT22;18342;52.132;21.048;2022-07-29T12:07:42;24.90;92.30
31769;DHT22;18342;52.132;21.048;2022-07-29T12:10:08;24.80;92.30
31769;DHT22;18342;52.132;21.048;2022-07-29T12:12:34;24.70;92.40
31769;DHT22;18342;52.132;21.048;2022-07-29T12:15:17;24.70;92.70
31769;DHT22;18342;52.132;21.048;2022-07-29T12:17:45;24.70;92.90
31769;DHT22;18342;52.132;21.048;2022-07-29T12:20:11;24.70;92.90
31769;DHT22;18342;52.132;21.048;2022-07-29T12:22:40;24.60;92.60
31769;DHT22;18342;52.132;21.048;2022-07-29T12:25:09;24.60;92.90
31769;DHT22;18342;52.132;21.048;2022-07-29T12:27:36;24.50;92.60
31769;DHT22;18342;52.132;21.048;2022-07-29T12:30:08;24.50;92.30
31769;DHT22;18342;52.132;21.048;2022-07-29T12:32:39;24.50;92.80
31769;DHT22;18342;52.132;21.048;2022-07-29T12:35:10;24.60;92.50
31769;DHT22;18342;52.132;21.048;2022-07-29T12:37:38;24.60;92.80
31769;DHT22;18342;52.132;21.048;2022-07-29T12:40:06;24.60;92.60
31769;DHT22;18342;52.132;21.048;2022-07-29T12:42:33;24.60;92.50
31769;DHT22;18342;52.132;21.048;2022-07-29T12:44:59;24.50;92.20
31769;DHT22;18342;52.132;21.048;2022-07-29T12:47:25;24.50;92.10
31769;DHT22;18342;52.132;21.048;2022-07-29T12:50:08;24.50;92.20
31769;DHT22;18342;52.132;21.048;2022-07-29T12:52:36;24.50;92.30
31769;DHT22;18342;52.132;21.048;2022-07-29T12:55:02;24.60;91.70
31769;DHT22;18342;52.132;21.048;2022-07-29T12:57:29;24.60;92.30
31769;DHT22;18342;52.132;21.048;2022-07-29T13:00:14;24.60;92.20
31769;DHT22;18342;52.132;21.048;2022-07-29T13:02:41;24.60;92.40
31769;DHT22;18342;52.132;21.048;2022-07-29T13:05:09;24.60;92.50
31769;DHT22;18342;52.132;21.048;2022-07-29T13:07:36;24.60;92.70
31769;DHT22;18342;52.132;21.048;2022-07-29T13:10:20;24.60;92.40
31769;DHT22;18342;52.132;21.048;2022-07-29T13:13:24;24.60;92.80
31769;DHT22;18342;52.132;21.048;2022-07-29T13:16:06;24.70;92.60
31769;DHT22;18342;52.132;21.048;2022-07-29T13:18:34;24.60;92.50
31769;DHT22;18342;52.132;21.048;2022-07-29T13:21:11;24.60;92.50
31769;DHT22;18342;52.132;21.048;2022-07-29T13:23:38;24.50;92.40
31769;DHT22;18342;52.132;21.048;2022-07-29T13:26:10;24.50;92.50
31769;DHT22;18342;52.132;21.048;2022-07-29T13:28:41;24.50;92.30
31769;DHT22;18342;52.132;21.048;2022-07-29T13:31:07;24.40;92.70
31769;DHT22;18342;52.132;21.048;2022-07-29T13:33:33;24.40;92.80
31769;DHT22;18342;52.132;21.048;2022-07-29T13:35:58;24.50;92.90
31769;DHT22;18342;52.132;21.048;2022-07-29T13:38:24;24.40;93.00
31769;DHT22;18342;52.132;21.048;2022-07-29T13:40:49;24.50;92.80
31769;DHT22;18342;52.132;21.048;2022-07-29T13:43:16;24.50;92.70
31769;DHT22;18342;52.132;21.048;2022-07-29T13:45:41;24.50;92.70
31769;DHT22;18342;52.132;21.048;2022-07-29T13:48:07;24.50;92.60
31769;DHT22;18342;52.132;21.048;2022-07-29T13:50:33;24.50;92.40
31769;DHT22;18342;52.132;21.048;2022-07-29T13:52:59;24.50;92.10
31769;DHT22;18342;52.132;21.048;2022-07-29T13:55:24;24.50;92.20
31769;DHT22;18342;52.132;21.048;2022-07-29T13:57:50;24.50;91.60
31769;DHT22;18342;52.132;21.048;2022-07-29T14:00:16;24.60;91.70
31769;DHT22;18342;52.132;21.048;2022-07-29T14:02:42;24.50;92.10
31769;DHT22;18342;52.132;21.048;2022-07-29T14:05:08;24.50;92.20
31769;DHT22;18342;52.132;21.048;2022-07-29T14:07:36;24.50;91.10
31769;DHT22;18342;52.132;21.048;2022-07-29T14:10:02;24.50;91.80
31769;DHT22;18342;52.132;21.048;2022-07-29T14:12:28;24.50;92.10
31769;DHT22;18342;52.132;21.048;2022-07-29T14:14:54;24.50;92.30
31769;DHT22;18342;52.132;21.048;2022-07-29T14:17:19;24.50;92.20
31769;DHT22;18342;52.132;21.048;2022-07-29T14:19:45;24.50;92.40
31769;DHT22;18342;52.132;21.048;2022-07-29T14:22:11;24.50;92.30
31769;DHT22;18342;52.132;21.048;2022-07-29T14:24:37;24.50;90.60
31769;DHT22;18342;52.132;21.048;2022-07-29T14:27:04;24.50;90.50
31769;DHT22;18342;52.132;21.048;2022-07-29T14:29:30;24.50;90.30
31769;DHT22;18342;52.132;21.048;2022-07-29T14:31:56;24.50;90.20
31769;DHT22;18342;52.132;21.048;2022-07-29T14:34:21;24.50;90.20
31769;DHT22;18342;52.132;21.048;2022-07-29T14:36:47;24.50;90.10
31769;DHT22;18342;52.132;21.048;2022-07-29T14:39:13;24.60;90.70
31769;DHT22;18342;52.132;21.048;2022-07-29T14:41:41;24.70;90.90
31769;DHT22;18342;52.132;21.048;2022-07-29T14:44:07;24.70;90.30
31769;DHT22;18342;52.132;21.048;2022-07-29T14:46:32;24.70;90.70
31769;DHT22;18342;52.132;21.048;2022-07-29T14:48:58;24.70;91.00
31769;DHT22;18342;52.132;21.048;2022-07-29T14:51:24;24.60;90.80
31769;DHT22;18342;52.132;21.048;2022-07-29T14:53:49;24.50;91.10
31769;DHT22;18342;52.132;21.048;2022-07-29T14:56:15;24.50;91.40
31769;DHT22;18342;52.132;21.048;2022-07-29T14:58:41;24.50;91.90
31769;DHT22;18342;52.132;21.048;2022-07-29T15:01:07;24.50;91.90
31769;DHT22;18342;52.132;21.048;2022-07-29T15:03:35;24.50;91.70
31769;DHT22;18342;52.132;21.048;2022-07-29T15:06:00;24.50;91.40
31769;DHT22;18342;52.132;21.048;2022-07-29T15:08:26;24.50;91.80
31769;DHT22;18342;52.132;21.048;2022-07-29T15:10:55;24.50;91.60
31769;DHT22;18342;52.132;21.048;2022-07-29T15:13:22;24.50;91.60
31769;DHT22;18342;52.132;21.048;2022-07-29T15:15:48;24.50;91.20
31769;DHT22;18342;52.132;21.048;2022-07-29T15:18:14;24.50;90.70
31769;DHT22;18342;52.132;21.048;2022-07-29T15:20:40;24.50;90.20
31769;DHT22;18342;52.132;21.048;2022-07-29T15:23:06;24.60;90.80
31769;DHT22;18342;52.132;21.048;2022-07-29T15:25:34;24.60;91.20
31769;DHT22;18342;52.132;21.048;2022-07-29T15:28:02;24.60;91.50
31769;DHT22;18342;52.132;21.048;2022-07-29T15:30:33;24.50;91.20
31769;DHT22;18342;52.132;21.048;2022-07-29T15:33:03;24.50;91.40
31769;DHT22;18342;52.132;21.048;2022-07-29T15:35:28;24.50;91.30
31769;DHT22;18342;52.132;21.048;2022-07-29T15:37:54;24.50;91.40
31769;DHT22;18342;52.132;21.048;2022-07-29T15:40:20;24.50;91.40
31769;DHT22;18342;52.132;21.048;2022-07-29T15:42:45;24.40;91.10
31769;DHT22;18342;52.132;21.048;2022-07-29T15:45:11;24.40;90.80
31769;DHT22;18342;52.132;21.048;2022-07-29T15:47:37;24.30;91.10
31769;DHT22;18342;52.132;21.048;2022-07-29T15:50:03;24.30;90.40
31769;DHT22;18342;52.132;21.048;2022-07-29T15:52:28;24.30;90.90
31769;DHT22;18342;52.132;21.048;2022-07-29T15:54:55;24.30;90.60
31769;DHT22;18342;52.132;21.048;2022-07-29T15:57:22;24.30;90.80
31769;DHT22;18342;52.132;21.048;2022-07-29T15:59:48;24.20;91.10
31769;DHT22;18342;52.132;21.048;2022-07-29T16:02:14;24.20;91.30
31769;DHT22;18342;52.132;21.048;2022-07-29T16:04:40;24.20;91.20
31769;DHT22;18342;52.132;21.048;2022-07-29T16:07:05;24.20;91.30
31769;DHT22;18342;52.132;21.048;2022-07-29T16:09:31;24.10;91.30
31769;DHT22;18342;52.132;21.048;2022-07-29T16:11:57;24.20;91.20
31769;DHT22;18342;52.132;21.048;2022-07-29T16:14:23;24.10;91.20
31769;DHT22;18342;52.132;21.048;2022-07-29T16:16:48;24.10;91.20
31769;DHT22;18342;52.132;21.048;2022-07-29T16:19:14;24.10;91.40
31769;DHT22;18342;52.132;21.048;2022-07-29T16:21:40;24.10;91.50
31769;DHT22;18342;52.132;21.048;2022-07-29T16:24:06;24.10;91.40
31769;DHT22;18342;52.132;21.048;2022-07-29T16:26:32;24.10;91.30
31769;DHT22;18342;52.132;21.048;2022-07-29T16:28:59;24.10;91.50
31769;DHT22;18342;52.132;21.048;2022-07-29T16:31:25;24.00;91.60
31769;DHT22;18342;52.132;21.048;2022-07-29T16:33:54;24.00;91.50
31769;DHT22;18342;52.132;21.048;2022-07-29T16:36:20;24.00;91.50
31769;DHT22;18342;52.132;21.048;2022-07-29T16:38:46;24.00;91.60
31769;DHT22;18342;52.132;21.048;2022-07-29T16:41:13;23.90;91.70
31769;DHT22;18342;52.132;21.048;2022-07-29T16:43:38;24.00;91.90
31769;DHT22;18342;52.132;21.048;2022-07-29T16:46:07;24.00;91.80
31769;DHT22;18342;52.132;21.048;2022-07-29T16:48:33;23.90;91.70
31769;DHT22;18342;52.132;21.048;2022-07-29T16:50:59;23.90;91.70
31769;DHT22;18342;52.132;21.048;2022-07-29T16:53:25;23.90;91.80
31769;DHT22;18342;52.132;21.048;2022-07-29T16:55:51;23.90;91.70
31769;DHT22;18342;52.132;21.048;2022-07-29T16:58:16;23.80;91.70
31769;DHT22;18342;52.132;21.048;2022-07-29T17:00:42;23.80;91.70
31769;DHT22;18342;52.132;21.048;2022-07-29T17:03:08;23.80;91.70
31769;DHT22;18342;52.132;21.048;2022-07-29T17:05:34;23.80;91.50
31769;DHT22;18342;52.132;21.048;2022-07-29T17:07:59;23.70;91.60
31769;DHT22;18342;52.132;21.048;2022-07-29T17:10:25;23.70;91.50
31769;DHT22;18342;52.132;21.048;2022-07-29T17:12:51;23.70;91.60
31769;DHT22;18342;52.132;21.048;2022-07-29T17:15:17;23.70;91.60
31769;DHT22;18342;52.132;21.048;2022-07-29T17:17:44;23.70;91.80
31769;DHT22;18342;52.132;21.048;2022-07-29T17:20:11;23.70;92.00
31769;DHT22;18342;52.132;21.048;2022-07-29T17:22:37;23.70;92.00
31769;DHT22;18342;52.132;21.048;2022-07-29T17:25:05;23.70;91.80
31769;DHT22;18342;52.132;21.048;2022-07-29T17:27:32;23.60;91.70
31769;DHT22;18342;52.132;21.048;2022-07-29T17:29:57;23.60;91.70
31769;DHT22;18342;52.132;21.048;2022-07-29T17:32:23;23.60;91.60
31769;DHT22;18342;52.132;21.048;2022-07-29T17:34:49;23.60;91.70
31769;DHT22;18342;52.132;21.048;2022-07-29T17:37:15;23.60;91.60
31769;DHT22;18342;52.132;21.048;2022-07-29T17:39:41;23.60;91.80
31769;DHT22;18342;52.132;21.048;2022-07-29T17:42:11;23.50;91.80
31769;DHT22;18342;52.132;21.048;2022-07-29T17:44:37;23.60;91.90
31769;DHT22;18342;52.132;21.048;2022-07-29T17:47:07;23.50;92.00
31769;DHT22;18342;52.132;21.048;2022-07-29T17:49:33;23.50;91.90